Terminal Aerodrome Forecast
Issued by NWS

Home | Current Version | Previous Version | Text Only | Print | Product List | Glossary On
Versions: 1 2 3 4 5 6 7 8 9 10 11 12 13 14 15
000
FTPQ31 PGUM 282327
TAFGUM
TAF

TAF
PGRO 282327Z 2900/2924 09013KT P6SM VCTS SCT012CB SCT025 BKN100
      TEMPO 2900/2904 3SM +SHRA SCT010 OVC025
     FM290800 08011KT P6SM VCSH SCT012 SCT030 BKN150=

USA.gov is the U.S. government's official web portal to all federal, state and local government web resources and services.